Time;durP1;ratioP1;P1;durP2;ratioP2;P2;SDS_P1;SDS_P2;PMS_P1;PMS_P2;Temp;Humidity;BMP_temperature;BMP_pressure;BME280_temperature;BME280_humidity;BME280_pressure;Samples;Min_cycle;Max_cycle;Signal;HPM_P1;HPM_P2
2021/09/02 00:00:34;;;;;;;5.58;4.22;;;;;;;12.88;82.97;97878.61;1727225;83;20997;-78
2021/09/02 00:03:01;;;;;;;5.87;4.40;;;;;;;12.91;83.11;97885.11;1726187;82;21020;-77
2021/09/02 00:05:28;;;;;;;5.37;4.55;;;;;;;12.90;83.15;97888.25;1727265;83;20985;-77
2021/09/02 00:07:55;;;;;;;7.65;5.00;;;;;;;12.89;83.01;97885.20;1727255;82;21005;-77
2021/09/02 00:10:21;;;;;;;6.10;4.70;;;;;;;12.87;83.69;97888.37;1727106;83;22155;-77
2021/09/02 00:12:50;;;;;;;9.15;4.90;;;;;;;12.85;83.34;97893.35;1705406;83;21063;-77
2021/09/02 00:15:16;;;;;;;8.20;4.85;;;;;;;12.83;83.15;97885.91;1723324;83;21024;-78
2021/09/02 00:17:44;;;;;;;8.15;5.25;;;;;;;12.80;83.40;97890.89;1726482;83;21487;-76
2021/09/02 00:20:14;;;;;;;7.85;5.03;;;;;;;12.78;82.97;97890.06;1727320;82;21041;-77
2021/09/02 00:22:44;;;;;;;6.03;4.87;;;;;;;12.73;83.33;97892.05;1707151;82;21028;-76
2021/09/02 00:25:11;;;;;;;9.25;5.28;;;;;;;12.70;83.31;97886.88;1699472;83;21032;-77
2021/09/02 00:27:38;;;;;;;7.40;5.10;;;;;;;12.65;83.41;97889.70;1698526;83;20984;-77
2021/09/02 00:30:07;;;;;;;7.28;5.90;;;;;;;12.58;83.33;97894.39;1698261;84;21072;-76
2021/09/02 00:32:34;;;;;;;10.08;5.60;;;;;;;12.52;83.79;97894.64;1701056;84;21020;-76
2021/09/02 00:35:01;;;;;;;10.48;6.03;;;;;;;12.47;83.72;97886.86;1733176;83;22163;-77
2021/09/02 00:37:28;;;;;;;8.48;5.97;;;;;;;12.47;83.96;97896.61;1734944;82;21344;-76
2021/09/02 00:39:55;;;;;;;6.65;5.50;;;;;;;12.42;85.62;97892.81;1734921;83;21031;-77
2021/09/02 00:42:21;;;;;;;8.65;5.53;;;;;;;12.46;84.79;97896.21;1734392;82;22201;-77
2021/09/02 00:44:48;;;;;;;8.95;5.70;;;;;;;12.49;85.14;97892.09;1733955;83;21043;-77
2021/09/02 00:47:19;;;;;;;11.18;6.60;;;;;;;12.48;85.19;97896.55;1734894;83;21005;-77
2021/09/02 00:49:47;;;;;;;7.25;5.10;;;;;;;12.50;85.67;97904.48;1735058;83;21036;-77
2021/09/02 00:52:21;;;;;;;7.85;5.28;;;;;;;12.55;85.64;97905.16;1735079;83;21004;-77
2021/09/02 00:54:54;;;;;;;8.35;5.40;;;;;;;12.63;85.53;97903.05;1735062;83;21004;-78
2021/09/02 00:57:25;;;;;;;9.53;5.92;;;;;;;12.69;85.35;97897.95;1734331;83;21020;-77
2021/09/02 01:00:00;;;;;;;8.28;5.35;;;;;;;12.74;85.15;97901.30;1734876;82;21039;-78
2021/09/02 01:02:29;;;;;;;6.25;4.87;;;;;;;12.80;85.14;97898.88;1735111;82;21012;-78
2021/09/02 01:04:58;;;;;;;8.83;5.85;;;;;;;12.85;85.14;97904.86;1722779;82;21411;-78
2021/09/02 01:07:27;;;;;;;7.03;5.40;;;;;;;12.89;84.77;97910.92;1721893;82;21045;-77
2021/09/02 01:09:55;;;;;;;9.13;5.78;;;;;;;12.91;84.61;97905.06;1725701;83;20995;-77
2021/09/02 01:12:36;;;;;;;11.85;5.53;;;;;;;12.97;84.31;97910.61;1726103;83;20981;-77
2021/09/02 01:15:23;;;;;;;8.58;5.70;;;;;;;13.01;83.98;97914.42;1713366;83;21464;-77
2021/09/02 01:17:57;;;;;;;11.12;6.67;;;;;;;13.01;83.81;97904.23;1727943;83;20981;-77
2021/09/02 01:20:27;;;;;;;7.25;5.80;;;;;;;13.07;83.41;97907.97;1715229;82;21051;-77
2021/09/02 01:23:01;;;;;;;8.73;6.05;;;;;;;13.07;83.83;97904.86;1705773;84;20977;-77
2021/09/02 01:25:35;;;;;;;10.20;5.92;;;;;;;13.09;83.39;97911.90;1705837;84;21458;-76
2021/09/02 01:28:08;;;;;;;7.67;5.47;;;;;;;13.06;83.38;97911.56;1716901;83;21462;-77
2021/09/02 01:30:39;;;;;;;12.37;6.12;;;;;;;13.05;83.53;97919.15;1735243;82;20976;-77
2021/09/02 01:33:11;;;;;;;9.53;6.50;;;;;;;13.09;83.36;97914.56;1729489;83;21419;-77
2021/09/02 01:35:38;;;;;;;7.20;5.12;;;;;;;13.09;83.35;97911.90;1727015;82;21015;-77
2021/09/02 01:38:08;;;;;;;8.60;5.05;;;;;;;13.03;83.48;97912.55;1726641;83;21020;-77
2021/09/02 01:40:44;;;;;;;10.10;5.85;;;;;;;13.03;83.31;97895.72;1727468;82;21402;-77
2021/09/02 01:43:14;;;;;;;12.73;7.17;;;;;;;13.01;83.39;97905.56;1727191;82;21009;-76
2021/09/02 01:45:41;;;;;;;9.93;5.30;;;;;;;12.98;83.46;97911.88;1727360;82;20965;-76
2021/09/02 01:48:08;;;;;;;8.45;5.47;;;;;;;12.96;83.48;97915.53;1726743;83;21050;-76
2021/09/02 01:50:40;;;;;;;8.48;6.10;;;;;;;12.93;83.54;97907.21;1710986;83;21052;-77
2021/09/02 01:53:13;;;;;;;9.78;5.90;;;;;;;12.90;83.78;97907.33;1698386;84;21012;-76
2021/09/02 01:55:43;;;;;;;8.25;6.10;;;;;;;12.84;83.90;97909.79;1698493;84;21430;-77
2021/09/02 01:58:09;;;;;;;7.65;5.70;;;;;;;12.78;83.78;97905.57;1698343;84;21084;-75
2021/09/02 02:00:36;;;;;;;8.15;6.42;;;;;;;12.68;84.29;97908.20;1698376;84;20997;-76
2021/09/02 02:03:04;;;;;;;9.23;6.37;;;;;;;12.62;84.42;97912.44;1721634;83;20965;-75
2021/09/02 02:05:32;;;;;;;8.45;6.20;;;;;;;12.55;84.78;97910.48;1727428;83;21013;-75
2021/09/02 02:07:59;;;;;;;7.80;6.37;;;;;;;12.52;84.45;97916.78;1727333;82;21064;-75
2021/09/02 02:10:28;;;;;;;7.47;6.20;;;;;;;12.46;84.41;97920.98;1727259;82;20972;-76
2021/09/02 02:13:00;;;;;;;10.15;5.90;;;;;;;12.40;84.45;97910.59;1725797;83;21052;-75
2021/09/02 02:15:28;;;;;;;12.75;7.40;;;;;;;12.31;85.73;97912.27;1722917;83;20957;-76
2021/09/02 02:17:56;;;;;;;10.88;6.25;;;;;;;12.32;85.00;97915.33;1727330;83;20988;-76
2021/09/02 02:20:23;;;;;;;10.65;7.03;;;;;;;12.27;85.48;97920.37;1727277;83;20953;-76
2021/09/02 02:22:50;;;;;;;10.35;7.42;;;;;;;12.30;85.50;97919.84;1727135;82;20957;-76
2021/09/02 02:25:17;;;;;;;9.98;6.40;;;;;;;12.31;85.44;97928.22;1727283;83;21490;-75
2021/09/02 02:27:44;;;;;;;14.23;6.30;;;;;;;12.27;86.32;97932.34;1727401;82;21433;-76
2021/09/02 02:30:15;;;;;;;8.20;5.92;;;;;;;12.33;85.71;97921.07;1727394;83;21394;-75
2021/09/02 02:32:43;;;;;;;10.20;6.17;;;;;;;12.31;86.00;97920.25;1711552;83;21020;-76
2021/09/02 02:35:11;;;;;;;9.35;6.22;;;;;;;12.35;85.76;97927.18;1705897;84;21012;-76
2021/09/02 02:37:38;;;;;;;8.60;6.05;;;;;;;12.38;85.57;97920.43;1722535;83;21059;-76
2021/09/02 02:40:08;;;;;;;9.15;5.85;;;;;;;12.40;85.60;97915.91;1735241;83;20972;-75
2021/09/02 02:42:35;;;;;;;11.35;6.53;;;;;;;12.39;85.76;97916.84;1735097;82;21016;-76
2021/09/02 02:45:02;;;;;;;10.75;5.75;;;;;;;12.40;85.62;97920.78;1734016;82;21415;-76
2021/09/02 02:47:28;;;;;;;8.93;5.75;;;;;;;12.40;85.67;97930.08;1735096;82;21024;-76
2021/09/02 02:49:55;;;;;;;6.72;5.45;;;;;;;12.38;85.60;97918.63;1735160;82;21011;-76
2021/09/02 02:52:21;;;;;;;7.87;5.95;;;;;;;12.41;85.70;97922.95;1735090;83;21438;-76
2021/09/02 02:54:48;;;;;;;8.28;5.40;;;;;;;12.41;85.70;97924.28;1735197;82;21032;-76
2021/09/02 02:57:14;;;;;;;9.70;6.50;;;;;;;12.41;85.56;97929.59;1711703;82;21055;-76
2021/09/02 02:59:43;;;;;;;9.55;6.28;;;;;;;12.44;85.42;97923.30;1705820;84;20972;-75
2021/09/02 03:02:09;;;;;;;9.35;5.47;;;;;;;12.45;85.59;97926.38;1716384;83;21036;-75
2021/09/02 03:04:35;;;;;;;8.40;6.47;;;;;;;12.41;85.32;97924.28;1735128;82;20993;-76
2021/09/02 03:07:03;;;;;;;8.88;6.35;;;;;;;12.43;85.10;97924.23;1735070;83;21068;-75
2021/09/02 03:09:30;;;;;;;8.05;5.97;;;;;;;12.40;85.11;97922.10;1734267;83;20973;-75
2021/09/02 03:11:56;;;;;;;7.83;5.92;;;;;;;12.41;85.12;97922.95;1735092;82;21005;-75
2021/09/02 03:14:23;;;;;;;9.43;6.58;;;;;;;12.40;85.06;97923.88;1734925;83;21011;-76
2021/09/02 03:16:49;;;;;;;9.95;6.45;;;;;;;12.39;85.13;97931.46;1735147;83;21083;-76
2021/09/02 03:19:17;;;;;;;9.78;6.25;;;;;;;12.40;84.93;97932.73;1734814;83;21043;-76
2021/09/02 03:21:43;;;;;;;9.73;6.47;;;;;;;12.39;85.05;97935.00;1719166;83;20964;-76
2021/09/02 03:24:10;;;;;;;9.80;5.92;;;;;;;12.41;84.88;97932.25;1705899;84;21064;-76
2021/09/02 03:26:36;;;;;;;8.00;5.78;;;;;;;12.44;85.25;97943.23;1710242;81;20968;-76
2021/09/02 03:29:03;;;;;;;12.55;6.35;;;;;;;12.41;85.48;97937.13;1735160;83;21549;-77
2021/09/02 03:31:30;;;;;;;8.78;5.78;;;;;;;12.43;85.47;97939.73;1734400;82;20996;-76
2021/09/02 03:33:57;;;;;;;12.58;5.90;;;;;;;12.42;85.50;97939.33;1734737;83;21008;-76
2021/09/02 03:36:24;;;;;;;8.53;6.08;;;;;;;12.44;85.41;97934.81;1735135;83;21040;-76
2021/09/02 03:38:51;;;;;;;9.55;5.75;;;;;;;12.46;85.50;97933.42;1734878;82;21044;-76
2021/09/02 03:41:17;;;;;;;8.70;5.60;;;;;;;12.48;85.48;97934.22;1734888;82;21008;-76
2021/09/02 03:43:45;;;;;;;8.55;5.65;;;;;;;12.50;85.45;97933.23;1728381;82;21511;-77
2021/09/02 03:46:11;;;;;;;8.65;5.95;;;;;;;12.52;85.31;97945.14;1705833;84;21005;-77
2021/09/02 03:48:38;;;;;;;8.30;5.55;;;;;;;12.52;85.28;97941.16;1705639;84;21024;-77
2021/09/02 03:51:04;;;;;;;7.30;6.28;;;;;;;12.45;85.62;97944.51;1705881;84;21031;-77
2021/09/02 03:53:31;;;;;;;9.78;6.70;;;;;;;12.41;85.67;97942.44;1733478;83;20984;-77
2021/09/02 03:55:57;;;;;;;11.20;6.90;;;;;;;12.42;85.31;97943.31;1724616;82;20929;-77
2021/09/02 03:58:24;;;;;;;13.93;7.03;;;;;;;12.35;86.07;97950.65;1705800;84;21449;-76
2021/09/02 04:00:50;;;;;;;11.28;6.58;;;;;;;12.32;86.18;97948.55;1705829;84;20944;-76
2021/09/02 04:03:18;;;;;;;10.20;6.87;;;;;;;12.27;85.95;97948.28;1705691;84;21000;-77
2021/09/02 04:05:45;;;;;;;10.15;6.62;;;;;;;12.21;86.65;97949.81;1705721;84;21055;-77
2021/09/02 04:08:14;;;;;;;8.25;6.00;;;;;;;12.19;86.54;97949.47;1718780;83;21461;-77
2021/09/02 04:10:40;;;;;;;8.05;6.08;;;;;;;12.16;87.08;97969.05;1723160;81;21405;-77
2021/09/02 04:13:07;;;;;;;8.28;5.62;;;;;;;12.16;87.16;97962.88;1717936;83;21003;-77
2021/09/02 04:15:34;;;;;;;10.35;6.62;;;;;;;12.13;87.29;97964.71;1710115;83;21048;-77
2021/09/02 04:18:00;;;;;;;8.50;5.67;;;;;;;12.17;86.91;97958.84;1734932;83;20992;-77
2021/09/02 04:20:28;;;;;;;8.33;5.15;;;;;;;12.20;86.67;97973.81;1734353;83;20968;-77
2021/09/02 04:22:55;;;;;;;8.13;5.58;;;;;;;12.23;86.58;97975.89;1731225;83;21020;-77
2021/09/02 04:25:23;;;;;;;13.25;5.67;;;;;;;12.25;86.79;97984.66;1705861;84;21023;-77
2021/09/02 04:27:50;;;;;;;10.03;5.75;;;;;;;12.30;86.69;97988.48;1705757;84;21008;-77
2021/09/02 04:30:16;;;;;;;8.80;5.40;;;;;;;12.33;86.52;97987.50;1705694;84;21055;-76
2021/09/02 04:32:44;;;;;;;9.68;5.42;;;;;;;12.38;86.34;97988.20;1725858;83;21027;-77
2021/09/02 04:35:12;;;;;;;7.90;5.37;;;;;;;12.43;86.37;97998.20;1726459;82;21419;-76
2021/09/02 04:37:42;;;;;;;7.03;5.70;;;;;;;12.48;86.06;97995.36;1713567;83;21020;-77
2021/09/02 04:40:10;;;;;;;8.50;5.78;;;;;;;12.51;85.75;98004.55;1696821;84;21025;-77
2021/09/02 04:42:37;;;;;;;9.48;5.30;;;;;;;12.56;85.38;98019.87;1697040;84;21430;-77
2021/09/02 04:45:06;;;;;;;11.05;5.87;;;;;;;12.62;85.09;98010.33;1723850;83;21061;-76
2021/09/02 04:47:33;;;;;;;11.60;5.62;;;;;;;12.64;84.59;98020.91;1727215;83;21005;-77
2021/09/02 04:50:00;;;;;;;6.58;5.17;;;;;;;12.65;84.36;98019.98;1727298;83;20977;-76
2021/09/02 04:52:26;;;;;;;9.15;6.03;;;;;;;12.66;84.36;98022.58;1727166;83;20993;-76
2021/09/02 04:54:53;;;;;;;8.25;5.72;;;;;;;12.67;84.12;98028.30;1726855;82;21071;-76
2021/09/02 04:57:19;;;;;;;8.38;5.47;;;;;;;12.74;84.24;98015.64;1698303;84;21120;-76
2021/09/02 04:59:47;;;;;;;9.35;5.58;;;;;;;12.75;83.90;98021.36;1715931;83;21347;-77
2021/09/02 05:02:14;;;;;;;8.00;5.92;;;;;;;12.79;83.77;98016.81;1701933;83;21012;-77
2021/09/02 05:04:41;;;;;;;6.62;5.35;;;;;;;12.77;83.33;98010.67;1705158;83;20997;-76
2021/09/02 05:07:07;;;;;;;9.93;6.40;;;;;;;12.80;83.31;98022.53;1726763;83;20965;-76
2021/09/02 05:09:35;;;;;;;8.13;5.65;;;;;;;12.83;83.46;98030.38;1727561;82;21020;-76
2021/09/02 05:12:02;;;;;;;7.30;5.40;;;;;;;12.86;83.20;98035.59;1715855;83;21043;-76
2021/09/02 05:14:28;;;;;;;7.90;5.40;;;;;;;12.85;83.08;98030.32;1711855;83;20986;-78
2021/09/02 05:16:56;;;;;;;6.55;5.12;;;;;;;12.92;82.71;98030.50;1721496;82;20965;-77
2021/09/02 05:19:22;;;;;;;8.43;5.33;;;;;;;13.00;83.11;98030.20;1726381;83;20973;-77
2021/09/02 05:21:49;;;;;;;6.25;4.72;;;;;;;12.97;82.52;98039.17;1727523;82;21035;-77
2021/09/02 05:24:15;;;;;;;8.30;5.40;;;;;;;13.06;82.61;98041.48;1727186;83;21398;-77
2021/09/02 05:26:42;;;;;;;10.80;5.47;;;;;;;13.09;82.28;98034.29;1726476;83;20972;-77
2021/09/02 05:29:08;;;;;;;9.20;6.12;;;;;;;13.18;82.56;98041.91;1727551;82;21004;-77
2021/09/02 05:31:37;;;;;;;6.90;4.72;;;;;;;13.24;82.58;98025.69;1726795;82;21415;-77
2021/09/02 05:34:03;;;;;;;7.30;4.65;;;;;;;13.35;82.96;98031.92;1735047;82;21079;-77
2021/09/02 05:36:30;;;;;;;7.65;5.05;;;;;;;13.40;81.61;98034.39;1694176;83;21022;-77
2021/09/02 05:38:56;;;;;;;6.65;5.00;;;;;;;13.44;81.61;98034.22;1735002;83;21040;-77
2021/09/02 05:41:22;;;;;;;7.90;5.42;;;;;;;13.48;81.18;98035.44;1735174;83;20969;-76
2021/09/02 05:43:49;;;;;;;8.00;5.28;;;;;;;13.54;81.39;98033.39;1735233;82;21533;-77
2021/09/02 05:46:15;;;;;;;10.28;5.10;;;;;;;13.56;80.96;98043.53;1733433;83;20973;-77
2021/09/02 05:48:42;;;;;;;8.28;5.40;;;;;;;13.54;80.73;98047.19;1733421;83;21012;-76
2021/09/02 05:51:09;;;;;;;11.85;5.33;;;;;;;13.59;80.73;98044.72;1728923;83;21008;-77
2021/09/02 05:53:35;;;;;;;6.70;5.53;;;;;;;13.62;80.54;98047.72;1730781;83;21426;-75
2021/09/02 05:56:05;;;;;;;7.22;5.58;;;;;;;13.55;80.84;98048.47;1723829;82;20940;-75
2021/09/02 05:58:32;;;;;;;6.60;4.60;;;;;;;13.58;81.14;98044.81;1705996;84;21047;-76
2021/09/02 06:00:58;;;;;;;10.18;5.97;;;;;;;13.52;80.87;98043.25;1710319;83;21039;-76
2021/09/02 06:03:27;;;;;;;18.23;11.25;;;;;;;13.58;80.72;98043.48;1728499;82;21476;-76
2021/09/02 06:05:53;;;;;;;10.10;6.28;;;;;;;13.60;80.85;98028.29;1718412;83;21805;-76
2021/09/02 06:08:19;;;;;;;7.62;5.75;;;;;;;13.64;80.67;98037.02;1720839;82;21019;-76
2021/09/02 06:10:46;;;;;;;6.58;5.50;;;;;;;13.72;80.41;98044.23;1734494;82;21016;-76
2021/09/02 06:13:12;;;;;;;10.93;6.30;;;;;;;13.76;79.77;98045.84;1734244;83;21485;-75
2021/09/02 06:15:39;;;;;;;8.20;5.83;;;;;;;13.88;80.18;98043.58;1723244;81;20980;-76
2021/09/02 06:18:05;;;;;;;8.98;6.22;;;;;;;13.99;79.75;98045.31;1728761;83;21000;-75
2021/09/02 06:20:32;;;;;;;8.28;5.53;;;;;;;14.05;79.40;98049.52;1728351;82;20978;-75
2021/09/02 06:22:59;;;;;;;6.95;5.47;;;;;;;14.11;78.79;98053.24;1728032;83;21001;-75
2021/09/02 06:25:26;;;;;;;9.33;5.65;;;;;;;14.17;78.88;98053.45;1723386;82;21548;-77
2021/09/02 06:27:53;;;;;;;7.50;5.00;;;;;;;14.22;78.54;98049.67;1722809;83;20980;-77
2021/09/02 06:30:19;;;;;;;8.68;6.00;;;;;;;14.24;77.81;98050.91;1727099;83;21035;-78
2021/09/02 06:32:47;;;;;;;6.28;4.53;;;;;;;14.25;77.96;98054.00;1723842;83;20972;-80
2021/09/02 06:35:13;;;;;;;9.40;4.80;;;;;;;14.28;77.14;98065.84;1719972;83;21476;-78
2021/09/02 06:37:44;;;;;;;6.80;4.20;;;;;;;14.38;77.53;98060.98;1703620;83;20995;-77
2021/09/02 06:40:14;;;;;;;6.22;4.70;;;;;;;14.49;77.12;98068.03;1701112;83;21023;-78
2021/09/02 06:42:40;;;;;;;8.48;4.87;;;;;;;14.62;76.12;98073.68;1711250;83;20973;-78
2021/09/02 06:45:08;;;;;;;6.20;4.00;;;;;;;14.74;76.95;98077.59;1692933;82;21032;-79
2021/09/02 06:47:39;;;;;;;6.47;4.50;;;;;;;14.84;75.47;98088.77;1681445;85;20977;-79
2021/09/02 06:50:09;;;;;;;7.92;5.08;;;;;;;14.95;76.44;98091.41;1716894;83;21392;-80
2021/09/02 06:52:37;;;;;;;6.75;4.22;;;;;;;15.06;74.89;98087.77;1718105;83;21040;-82
2021/09/02 06:55:06;;;;;;;6.72;4.37;;;;;;;15.22;75.06;98085.70;1717786;83;21076;-80
2021/09/02 06:57:36;;;;;;;7.37;4.62;;;;;;;15.29;75.23;98098.69;1696031;83;20990;-81
2021/09/02 07:00:08;;;;;;;6.42;4.80;;;;;;;15.44;74.45;98097.56;1696673;84;21017;-79
2021/09/02 07:02:34;;;;;;;4.80;4.12;;;;;;;15.57;73.54;98102.72;1700978;83;21000;-80
2021/09/02 07:05:04;;;;;;;6.37;4.47;;;;;;;15.57;72.88;98096.05;1705262;84;21080;-77
2021/09/02 07:07:31;;;;;;;6.53;4.10;;;;;;;15.54;71.74;98112.20;1704490;84;21077;-81
2021/09/02 07:10:20;;;;;;;5.33;4.40;;;;;;;15.43;71.68;98102.52;1701964;82;21032;-78
2021/09/02 07:12:48;;;;;;;5.12;3.95;;;;;;;15.41;71.44;98102.58;1698610;84;21071;-78
2021/09/02 07:15:15;;;;;;;7.42;4.10;;;;;;;15.57;72.41;98101.84;1712257;84;21087;-78
2021/09/02 07:17:41;;;;;;;6.17;3.98;;;;;;;15.64;71.57;98115.31;1713275;84;21012;-77
2021/09/02 07:20:10;;;;;;;7.55;4.20;;;;;;;15.65;71.33;98099.67;1713678;84;20992;-77
2021/09/02 07:22:37;;;;;;;7.58;4.20;;;;;;;15.58;70.33;98114.28;1713909;83;21043;-77
2021/09/02 07:25:05;;;;;;;4.30;3.62;;;;;;;15.60;70.82;98107.54;1714419;84;21087;-78
2021/09/02 07:27:32;;;;;;;4.22;3.77;;;;;;;15.68;69.39;98096.87;1715454;82;21012;-77
2021/09/02 07:29:58;;;;;;;6.17;3.60;;;;;;;15.72;69.40;98100.25;1715670;84;21041;-77
2021/09/02 07:32:26;;;;;;;6.80;3.87;;;;;;;15.74;68.71;98101.02;1715532;84;21055;-77
2021/09/02 07:34:53;;;;;;;7.10;4.05;;;;;;;15.62;68.79;98111.86;1715727;83;20982;-77
2021/09/02 07:37:20;;;;;;;4.33;3.42;;;;;;;15.56;68.85;98114.81;1714405;84;21377;-77
2021/09/02 07:39:46;;;;;;;4.35;3.45;;;;;;;15.48;68.51;98103.66;1713876;84;21008;-78
2021/09/02 07:42:13;;;;;;;3.90;3.47;;;;;;;15.41;68.72;98097.73;1714154;84;21063;-78
2021/09/02 07:44:39;;;;;;;6.37;3.85;;;;;;;15.31;69.74;98103.96;1714526;84;21015;-78
2021/09/02 07:47:06;;;;;;;7.45;3.70;;;;;;;15.30;69.95;98096.44;1715097;83;21043;-78
2021/09/02 07:49:33;;;;;;;5.55;3.75;;;;;;;15.32;69.30;98107.02;1715750;84;20971;-78
2021/09/02 07:51:59;;;;;;;6.25;3.80;;;;;;;15.39;70.41;98096.92;1715702;84;21544;-78
2021/09/02 07:54:25;;;;;;;6.40;3.25;;;;;;;15.40;69.04;98102.69;1714183;83;20917;-78
2021/09/02 07:56:52;;;;;;;5.65;3.87;;;;;;;15.47;69.01;98103.23;1714219;83;20991;-78
2021/09/02 07:59:21;;;;;;;4.55;3.27;;;;;;;15.58;69.41;98101.77;1714284;84;20996;-78
2021/09/02 08:01:47;;;;;;;4.40;2.95;;;;;;;15.66;67.66;98106.74;1714188;84;20965;-78
2021/09/02 08:04:14;;;;;;;5.35;3.58;;;;;;;15.74;66.79;98103.69;1715281;84;20999;-77
2021/09/02 08:06:41;;;;;;;5.37;3.35;;;;;;;15.82;68.30;98105.53;1715402;82;21007;-78
2021/09/02 08:09:07;;;;;;;4.45;3.08;;;;;;;15.93;67.95;98107.70;1715715;84;20975;-78
2021/09/02 08:11:34;;;;;;;4.37;2.98;;;;;;;16.05;68.06;98110.24;1708554;83;21079;-78
2021/09/02 08:14:00;;;;;;;5.55;3.65;;;;;;;16.20;67.73;98109.08;1689424;84;20996;-78
2021/09/02 08:16:27;;;;;;;5.55;2.90;;;;;;;16.34;67.60;98111.03;1687697;85;21492;-77
2021/09/02 08:18:54;;;;;;;5.83;3.72;;;;;;;16.43;66.13;98115.03;1687871;85;21057;-77
2021/09/02 08:21:22;;;;;;;46.23;4.58;;;;;;;16.58;67.39;98110.25;1687587;85;21541;-78
2021/09/02 08:23:49;;;;;;;8.35;3.37;;;;;;;16.73;65.77;98111.23;1687844;85;21013;-78
2021/09/02 08:26:15;;;;;;;4.62;3.25;;;;;;;16.87;63.77;98106.96;1687605;85;21093;-78
2021/09/02 08:28:42;;;;;;;3.85;3.12;;;;;;;16.96;63.15;98107.81;1689248;85;21036;-78
2021/09/02 08:31:09;;;;;;;5.90;2.70;;;;;;;17.12;65.37;98113.70;1687579;85;21029;-78
2021/09/02 08:33:35;;;;;;;4.80;3.47;;;;;;;17.22;61.92;98105.55;1687768;85;21495;-77
2021/09/02 08:36:02;;;;;;;5.03;3.08;;;;;;;17.26;61.83;98111.59;1687522;85;21013;-77
2021/09/02 08:38:29;;;;;;;5.72;2.92;;;;;;;17.34;64.20;98117.39;1687780;85;21069;-78
2021/09/02 08:40:56;;;;;;;4.80;2.90;;;;;;;17.41;61.79;98114.75;1688936;85;21020;-77
2021/09/02 08:43:25;;;;;;;3.52;2.70;;;;;;;17.45;60.30;98118.61;1689009;85;21025;-77
2021/09/02 08:45:55;;;;;;;4.53;3.25;;;;;;;17.44;61.71;98117.73;1687641;85;21040;-78
2021/09/02 08:48:23;;;;;;;5.20;3.10;;;;;;;17.43;60.19;98120.03;1687774;85;20998;-78
2021/09/02 08:50:51;;;;;;;4.05;2.67;;;;;;;17.51;62.30;98127.17;1667695;85;21057;-78
2021/09/02 08:53:17;;;;;;;3.87;2.90;;;;;;;17.58;61.17;98125.02;1687734;85;20974;-78
2021/09/02 08:55:45;;;;;;;5.28;3.00;;;;;;;17.62;61.45;98127.04;1686917;85;21268;-80
2021/09/02 08:58:11;;;;;;;5.40;3.40;;;;;;;17.64;60.70;98128.68;1687380;85;21021;-79
2021/09/02 09:00:38;;;;;;;6.70;3.08;;;;;;;17.68;63.10;98128.91;1687895;85;20989;-79
2021/09/02 09:03:06;;;;;;;4.90;3.08;;;;;;;17.69;61.57;98127.09;1687744;85;21101;-79
2021/09/02 09:05:36;;;;;;;4.30;3.15;;;;;;;17.61;61.34;98128.84;1687818;84;21395;-79
2021/09/02 09:08:11;;;;;;;5.28;3.30;;;;;;;17.51;61.00;98126.30;1687646;85;21590;-79
2021/09/02 09:10:40;;;;;;;4.72;2.80;;;;;;;17.42;61.86;98123.66;1687564;85;21463;-79
2021/09/02 09:13:08;;;;;;;4.45;2.80;;;;;;;17.33;61.49;98118.81;1704963;84;20997;-78
2021/09/02 09:15:42;;;;;;;6.95;3.15;;;;;;;17.34;60.75;98113.84;1704335;84;20996;-79
2021/09/02 09:18:22;;;;;;;4.47;3.17;;;;;;;17.32;60.96;98119.30;1704753;84;20994;-78
2021/09/02 09:21:12;;;;;;;5.85;3.02;;;;;;;17.32;61.09;98124.66;1705812;84;21015;-78
2021/09/02 09:24:05;;;;;;;4.00;2.33;;;;;;;17.28;61.06;98130.64;1706236;84;21502;-78
2021/09/02 09:26:34;;;;;;;4.30;3.37;;;;;;;17.27;59.36;98114.19;1706212;83;21015;-78
2021/09/02 09:29:17;;;;;;;3.83;2.83;;;;;;;17.44;60.16;98128.45;1706156;84;21000;-79
2021/09/02 09:31:44;;;;;;;6.90;3.35;;;;;;;17.58;59.44;98125.48;1677783;85;21011;-79
2021/09/02 09:34:11;;;;;;;4.80;2.98;;;;;;;17.59;59.92;98129.88;1677691;85;21575;-79
2021/09/02 09:36:39;;;;;;;4.95;2.77;;;;;;;17.47;58.85;98114.89;1677927;84;20928;-79
2021/09/02 09:39:10;;;;;;;4.60;3.50;;;;;;;17.34;57.61;98115.17;1677825;85;21164;-79
2021/09/02 09:41:44;;;;;;;4.05;2.98;;;;;;;17.46;58.40;98099.77;1681528;84;20980;-78
2021/09/02 09:44:26;;;;;;;4.03;3.10;;;;;;;17.63;58.09;98112.69;1704811;84;21465;-78
2021/09/02 09:47:19;;;;;;;4.70;2.42;;;;;;;17.80;57.70;98107.23;1697525;84;21001;-78
2021/09/02 09:49:58;;;;;;;5.35;2.90;;;;;;;17.85;56.45;98097.57;1704102;82;21004;-79
2021/09/02 09:52:33;;;;;;;5.15;2.83;;;;;;;17.73;55.94;98115.22;1706338;84;20988;-79
2021/09/02 09:55:13;;;;;;;3.47;2.72;;;;;;;17.70;56.51;98115.88;1705540;84;21031;-78
2021/09/02 09:57:41;;;;;;;5.03;2.67;;;;;;;17.73;57.78;98123.77;1706047;84;21083;-78
2021/09/02 10:00:16;;;;;;;3.85;2.87;;;;;;;17.91;58.44;98113.33;1705762;84;20956;-78
2021/09/02 10:02:48;;;;;;;4.37;2.60;;;;;;;18.11;59.13;98125.20;1704913;84;21763;-78
2021/09/02 10:05:18;;;;;;;5.28;2.75;;;;;;;18.31;57.04;98120.02;1704763;84;21446;-77
2021/09/02 10:07:47;;;;;;;3.45;2.70;;;;;;;18.51;55.85;98124.17;1705431;84;20987;-78
2021/09/02 10:10:16;;;;;;;5.55;2.87;;;;;;;18.68;57.17;98126.33;1706198;84;20977;-78
2021/09/02 10:12:47;;;;;;;3.20;2.50;;;;;;;18.82;56.33;98112.93;1704614;83;20975;-78
2021/09/02 10:15:20;;;;;;;7.22;3.60;;;;;;;18.94;54.80;98126.55;1677833;84;21020;-81
2021/09/02 10:17:48;;;;;;;3.60;2.87;;;;;;;18.93;53.86;98121.64;1661773;86;21555;-81
2021/09/02 10:20:20;;;;;;;3.85;2.75;;;;;;;18.84;54.55;98122.20;1661595;86;21069;-81
2021/09/02 10:22:50;;;;;;;4.65;2.98;;;;;;;18.74;54.66;98121.42;1673622;85;21010;-81
2021/09/02 10:25:37;;;;;;;4.50;2.40;;;;;;;18.67;55.43;98121.43;1689067;85;21001;-81
2021/09/02 10:28:17;;;;;;;4.53;2.35;;;;;;;18.56;55.80;98124.76;1688690;84;21506;-81
2021/09/02 10:30:53;;;;;;;3.70;2.40;;;;;;;18.29;55.20;98132.17;1688865;85;21025;-81
2021/09/02 10:33:43;;;;;;;5.28;2.92;;;;;;;18.25;56.57;98123.04;1687821;85;20978;-82
2021/09/02 10:36:21;;;;;;;4.83;2.60;;;;;;;18.20;57.05;98124.67;1688242;85;21033;-82
2021/09/02 10:38:52;;;;;;;9.58;3.37;;;;;;;18.04;55.73;98129.56;1687845;85;21132;-81
2021/09/02 10:41:44;;;;;;;5.42;2.98;;;;;;;17.93;57.24;98140.02;1687797;85;21069;-82
2021/09/02 10:44:13;;;;;;;7.55;3.17;;;;;;;19.00;53.95;98132.41;1687748;85;21088;-82
2021/09/02 10:46:44;;;;;;;4.50;3.05;;;;;;;20.81;53.16;98130.12;1687857;85;21087;-82
2021/09/02 10:49:18;;;;;;;3.12;2.75;;;;;;;20.97;51.36;98124.56;1688432;85;20988;-82
2021/09/02 10:51:58;;;;;;;3.85;2.87;;;;;;;20.76;51.03;98122.00;1689012;85;21045;-82
2021/09/02 10:54:30;;;;;;;3.35;2.87;;;;;;;21.41;49.99;98120.62;1687903;85;20986;-82
2021/09/02 10:57:03;;;;;;;4.53;2.80;;;;;;;21.05;46.73;98124.52;1687806;85;20990;-82
2021/09/02 10:59:52;;;;;;;6.72;4.35;;;;;;;21.55;45.40;98131.27;1688981;85;21411;-82
2021/09/02 11:02:27;;;;;;;4.55;4.08;;;;;;;21.47;44.97;98126.43;1689465;85;21364;-82
2021/09/02 11:05:01;;;;;;;3.95;2.85;;;;;;;21.88;46.67;98134.34;1689214;85;21056;-77
2021/09/02 11:07:52;;;;;;;5.37;3.20;;;;;;;22.37;44.45;98108.66;1689383;85;21008;-79
2021/09/02 11:10:22;;;;;;;3.22;2.58;;;;;;;21.47;44.75;98130.47;1688114;84;21029;-79
2021/09/02 11:13:07;;;;;;;3.77;3.00;;;;;;;21.22;45.82;98126.85;1699991;84;21043;-78
2021/09/02 11:15:35;;;;;;;4.60;3.00;;;;;;;21.22;45.82;98126.85;1705245;84;21053;-78
2021/09/02 11:18:06;;;;;;;6.22;3.37;;;;;;;21.23;47.09;98129.92;1701150;82;21488;-80
2021/09/02 11:20:38;;;;;;;4.10;3.02;;;;;;;21.38;46.56;98118.16;1705607;82;21028;-81
2021/09/02 11:23:17;;;;;;;3.10;2.80;;;;;;;21.42;46.25;98132.64;1715753;82;20947;-81
2021/09/02 11:25:51;;;;;;;4.60;3.17;;;;;;;21.46;45.98;98144.06;1706225;83;20979;-77
2021/09/02 11:28:23;;;;;;;4.25;3.00;;;;;;;21.80;47.30;98139.44;1694597;83;21023;-76
2021/09/02 11:30:52;;;;;;;4.12;2.70;;;;;;;21.86;45.51;98150.64;1732951;82;20986;-78
2021/09/02 11:33:19;;;;;;;12.88;3.92;;;;;;;21.01;45.52;98154.83;1727077;82;22194;-79
2021/09/02 11:35:58;;;;;;;4.17;2.72;;;;;;;20.59;47.33;98159.02;1739664;82;21416;-78
2021/09/02 11:38:25;;;;;;;2.75;2.55;;;;;;;21.02;47.23;98161.09;1716093;82;21057;-78
2021/09/02 11:40:53;;;;;;;5.40;2.72;;;;;;;21.02;47.23;98161.09;1731743;82;20971;-78